Time;durP1;ratioP1;P1;durP2;ratioP2;P2;SDS_P1;SDS_P2;PMS_P1;PMS_P2;Temp;Humidity;BMP_temperature;BMP_pressure;BME280_temperature;BME280_humidity;BME280_pressure;Samples;Min_cycle;Max_cycle;Signal;HPM_P1;HPM_P2
2022/07/29 00:01:40;;;;;;;3.92;2.28;;;;;;;22.85;39.77;101514.13;5009703;28;20077;-69
2022/07/29 00:04:11;;;;;;;3.42;1.30;;;;;;;22.86;39.93;101512.25;5010385;28;20441;-69
2022/07/29 00:06:39;;;;;;;3.70;1.17;;;;;;;22.87;39.99;101516.72;5010191;28;20510;-68
2022/07/29 00:09:06;;;;;;;6.07;1.60;;;;;;;22.87;39.75;101516.72;5010390;28;20455;-69
2022/07/29 00:11:33;;;;;;;5.93;2.17;;;;;;;22.87;39.97;101513.97;5009846;28;20072;-68
2022/07/29 00:14:00;;;;;;;3.85;1.75;;;;;;;22.87;39.95;101523.03;5010249;28;20508;-68
2022/07/29 00:16:26;;;;;;;2.22;1.15;;;;;;;22.88;39.80;101521.16;5010191;28;20069;-69
2022/07/29 00:18:53;;;;;;;4.20;1.25;;;;;;;22.90;39.91;101519.94;5010181;28;20121;-69
2022/07/29 00:21:20;;;;;;;5.20;1.23;;;;;;;22.90;40.01;101519.09;5009538;28;20388;-68
2022/07/29 00:23:46;;;;;;;1.67;1.00;;;;;;;22.89;39.93;101515.50;5010063;28;20038;-68
2022/07/29 00:26:13;;;;;;;1.63;1.20;;;;;;;22.88;40.00;101513.78;5010122;28;20113;-69
2022/07/29 00:28:40;;;;;;;2.38;1.42;;;;;;;22.89;39.71;101509.19;5010211;28;20046;-69
2022/07/29 00:31:07;;;;;;;3.20;1.38;;;;;;;22.90;39.70;101508.16;5009680;28;20034;-67
2022/07/29 00:33:36;;;;;;;1.80;1.00;;;;;;;22.90;39.75;101511.75;5010010;28;20378;-67
2022/07/29 00:36:03;;;;;;;3.05;1.25;;;;;;;22.90;40.22;101514.47;5009727;28;20064;-68
2022/07/29 00:38:29;;;;;;;1.85;0.85;;;;;;;22.92;39.87;101508.81;5010057;28;20049;-67
2022/07/29 00:40:56;;;;;;;3.17;1.30;;;;;;;22.93;40.30;101499.56;5009660;28;20400;-68
2022/07/29 00:43:24;;;;;;;3.35;2.03;;;;;;;22.93;40.25;101503.19;5009791;28;20049;-68
2022/07/29 00:45:50;;;;;;;8.15;1.80;;;;;;;22.91;40.83;101498.91;5009947;28;20489;-69
2022/07/29 00:48:17;;;;;;;7.25;2.80;;;;;;;22.89;40.91;101503.69;5009780;28;20129;-72
2022/07/29 00:50:43;;;;;;;5.47;2.58;;;;;;;22.83;41.83;101521.69;5009510;28;20049;-72
2022/07/29 00:53:12;;;;;;;10.27;2.50;;;;;;;22.76;42.64;101524.22;4990248;28;20066;-71
2022/07/29 00:55:38;;;;;;;5.47;2.30;;;;;;;22.68;43.12;101524.22;4990435;28;20049;-70
2022/07/29 00:58:06;;;;;;;4.43;2.22;;;;;;;22.61;43.29;101528.66;4990363;28;20043;-70
2022/07/29 01:00:33;;;;;;;8.38;2.58;;;;;;;22.48;43.38;101522.84;4990212;28;20146;-70
2022/07/29 01:03:01;;;;;;;5.15;2.33;;;;;;;22.30;44.15;101512.06;5007849;28;20058;-70
2022/07/29 01:05:30;;;;;;;5.13;1.83;;;;;;;22.13;44.16;101510.28;5010938;28;20196;-70
2022/07/29 01:08:18;;;;;;;4.68;2.08;;;;;;;21.95;44.66;101506.81;5013280;28;20508;-70
2022/07/29 01:10:47;;;;;;;3.45;2.13;;;;;;;21.83;44.94;101511.72;5011961;28;20300;-70
2022/07/29 01:13:15;;;;;;;4.65;1.98;;;;;;;21.74;45.48;101521.78;5012834;28;20042;-70
2022/07/29 01:15:51;;;;;;;5.53;2.50;;;;;;;21.70;46.05;101528.59;5013012;28;20037;-70
2022/07/29 01:18:30;;;;;;;4.03;2.20;;;;;;;21.70;46.46;101541.41;5012060;28;20042;-70
2022/07/29 01:21:21;;;;;;;6.40;2.13;;;;;;;21.69;46.89;101556.09;5012630;28;20436;-70
2022/07/29 01:24:19;;;;;;;3.70;2.30;;;;;;;21.60;47.03;101571.59;5013002;28;20360;-69
2022/07/29 01:26:58;;;;;;;5.70;2.33;;;;;;;21.58;46.92;101572.78;5012944;28;20034;-70
2022/07/29 01:29:56;;;;;;;4.85;2.20;;;;;;;21.54;47.42;101584.00;5012940;28;20484;-70
2022/07/29 01:32:27;;;;;;;2.42;2.22;;;;;;;21.57;47.03;101593.81;5011656;28;20493;-69
2022/07/29 01:35:21;;;;;;;5.07;2.55;;;;;;;21.57;47.64;101580.13;5013051;28;20046;-69
2022/07/29 01:38:20;;;;;;;8.00;2.55;;;;;;;21.55;48.08;101577.56;5012773;28;20050;-68
2022/07/29 01:40:51;;;;;;;3.78;2.55;;;;;;;21.54;47.67;101578.56;5008254;28;20060;-68
2022/07/29 01:43:23;;;;;;;4.28;2.70;;;;;;;21.53;47.67;101565.91;5012687;28;20044;-69
2022/07/29 01:45:57;;;;;;;3.47;2.70;;;;;;;21.44;48.03;101552.34;5013054;28;20128;-69
2022/07/29 01:48:50;;;;;;;5.00;2.83;;;;;;;21.25;48.57;101551.56;5013172;28;20038;-69
2022/07/29 01:51:27;;;;;;;4.88;3.08;;;;;;;21.13;48.70;101558.28;5012189;28;20137;-69
2022/07/29 01:54:12;;;;;;;4.07;2.83;;;;;;;21.04;48.81;101542.88;5012373;28;20069;-69
2022/07/29 01:56:43;;;;;;;3.20;2.65;;;;;;;20.94;49.48;101531.19;5012452;28;20045;-69
2022/07/29 01:59:10;;;;;;;3.97;3.17;;;;;;;20.84;49.37;101524.97;5012726;28;20289;-69
2022/07/29 02:01:40;;;;;;;5.43;3.53;;;;;;;20.78;49.67;101520.97;5012015;28;20074;-68
2022/07/29 02:04:09;;;;;;;4.03;3.05;;;;;;;20.76;49.68;101508.50;5011057;28;20092;-68
2022/07/29 02:06:38;;;;;;;8.57;3.40;;;;;;;20.73;49.97;101504.22;5011081;28;20042;-69
2022/07/29 02:09:06;;;;;;;4.45;2.67;;;;;;;20.71;50.07;101478.94;5012190;28;20038;-68
2022/07/29 02:11:37;;;;;;;5.85;3.20;;;;;;;20.69;50.13;101461.03;5011728;28;20065;-69
2022/07/29 02:14:05;;;;;;;6.93;3.38;;;;;;;20.65;50.47;101452.28;5012313;28;20041;-69
2022/07/29 02:16:34;;;;;;;4.60;2.95;;;;;;;20.63;50.85;101446.13;5010892;28;20049;-69
2022/07/29 02:19:02;;;;;;;4.40;2.75;;;;;;;20.58;50.83;101452.06;5012103;28;20052;-68
2022/07/29 02:21:31;;;;;;;5.50;3.20;;;;;;;20.52;50.88;101458.16;5011427;28;20056;-69
2022/07/29 02:24:04;;;;;;;3.72;2.72;;;;;;;20.50;50.81;101459.34;5011965;28;20057;-68
2022/07/29 02:26:33;;;;;;;6.93;2.78;;;;;;;20.51;50.85;101458.31;5011893;28;20072;-69
2022/07/29 02:29:01;;;;;;;5.30;3.13;;;;;;;20.52;50.91;101454.59;5011871;28;20532;-69
2022/07/29 02:31:33;;;;;;;7.22;2.78;;;;;;;20.50;51.26;101432.91;5011132;28;20038;-69
2022/07/29 02:34:08;;;;;;;3.25;2.85;;;;;;;20.46;51.20;101434.25;5012037;28;20070;-68
2022/07/29 02:36:35;;;;;;;3.05;2.55;;;;;;;20.44;51.61;101424.50;5011813;28;20038;-69
2022/07/29 02:39:03;;;;;;;4.40;3.17;;;;;;;20.41;51.31;101424.81;5010325;28;20121;-69
2022/07/29 02:41:37;;;;;;;3.47;2.72;;;;;;;20.37;51.67;101437.91;5011298;28;20510;-69
2022/07/29 02:44:13;;;;;;;5.55;3.40;;;;;;;20.33;51.64;101419.28;5011863;28;20052;-69
2022/07/29 02:46:46;;;;;;;4.32;3.55;;;;;;;20.30;51.92;101420.44;5011925;28;20325;-69
2022/07/29 02:49:29;;;;;;;6.07;3.42;;;;;;;20.29;52.07;101418.75;5011008;28;20074;-69
2022/07/29 02:52:03;;;;;;;7.65;3.40;;;;;;;20.25;52.25;101418.19;5011435;28;20038;-69
2022/07/29 02:54:42;;;;;;;4.18;3.22;;;;;;;20.23;51.99;101422.94;5009974;28;20443;-68
2022/07/29 02:57:21;;;;;;;4.03;3.00;;;;;;;20.19;52.12;101421.56;5011575;28;20029;-69
2022/07/29 02:59:52;;;;;;;4.53;3.20;;;;;;;20.21;52.30;101426.84;5011122;28;20034;-68
2022/07/29 03:02:21;;;;;;;5.18;3.50;;;;;;;20.21;52.46;101435.91;5009982;28;20497;-69
2022/07/29 03:04:49;;;;;;;3.75;3.03;;;;;;;20.22;52.43;101423.97;5011196;28;20493;-69
2022/07/29 03:07:18;;;;;;;6.07;3.15;;;;;;;20.21;52.65;101430.44;5011114;28;20073;-68
2022/07/29 03:09:45;;;;;;;4.95;3.00;;;;;;;20.16;52.11;101432.78;5009030;28;20048;-69
2022/07/29 03:12:14;;;;;;;4.60;2.95;;;;;;;20.15;52.28;101430.22;5010908;28;20124;-69
2022/07/29 03:14:43;;;;;;;4.38;2.92;;;;;;;20.13;52.53;101424.91;5010991;28;20120;-69
2022/07/29 03:17:10;;;;;;;7.30;3.10;;;;;;;20.10;52.84;101427.09;5010780;28;20049;-69
2022/07/29 03:19:37;;;;;;;5.38;3.05;;;;;;;20.06;52.63;101426.53;5010485;28;20046;-68
2022/07/29 03:22:03;;;;;;;3.92;2.80;;;;;;;20.07;53.02;101420.09;5010783;28;20042;-69
2022/07/29 03:24:36;;;;;;;7.35;3.30;;;;;;;20.06;52.76;101428.38;5010922;28;20140;-70
2022/07/29 03:27:04;;;;;;;6.05;3.40;;;;;;;20.06;52.63;101422.94;5010386;28;20061;-69
2022/07/29 03:29:32;;;;;;;3.80;2.83;;;;;;;20.07;52.72;101430.13;5010208;28;20038;-69
2022/07/29 03:32:02;;;;;;;3.92;3.00;;;;;;;20.07;52.87;101428.25;5010592;28;20403;-69
2022/07/29 03:34:36;;;;;;;6.55;3.35;;;;;;;20.07;53.01;101421.97;5010831;28;20445;-69
2022/07/29 03:37:05;;;;;;;7.05;2.97;;;;;;;20.08;53.06;101434.56;5010851;28;20038;-69
2022/07/29 03:39:40;;;;;;;3.67;2.80;;;;;;;20.09;53.14;101436.28;5010404;28;20038;-69
2022/07/29 03:42:10;;;;;;;4.43;2.72;;;;;;;20.09;53.25;101431.69;5010746;28;20100;-69
2022/07/29 03:44:38;;;;;;;3.65;3.00;;;;;;;20.10;52.96;101427.94;5010141;28;20050;-69
2022/07/29 03:47:08;;;;;;;3.67;3.35;;;;;;;20.13;53.20;101435.81;5010550;28;20061;-69
2022/07/29 03:49:37;;;;;;;5.88;3.13;;;;;;;20.17;53.20;101439.09;5005447;28;20042;-68
2022/07/29 03:52:05;;;;;;;3.50;3.17;;;;;;;20.17;53.58;101442.69;4990634;28;20042;-68
2022/07/29 03:54:31;;;;;;;6.05;3.42;;;;;;;20.20;52.96;101441.50;4990929;28;20062;-68
2022/07/29 03:57:01;;;;;;;6.90;3.08;;;;;;;20.20;53.14;101447.81;4989775;28;20444;-69
2022/07/29 03:59:30;;;;;;;5.10;3.90;;;;;;;20.21;53.57;101448.66;5007787;28;20037;-69
2022/07/29 04:01:58;;;;;;;5.57;3.15;;;;;;;20.20;53.47;101445.09;5010042;28;20038;-69
2022/07/29 04:04:26;;;;;;;7.00;3.42;;;;;;;20.19;53.52;101443.38;5010154;28;20100;-69
2022/07/29 04:06:54;;;;;;;4.75;3.15;;;;;;;20.17;53.54;101445.41;5010341;28;20046;-70
2022/07/29 04:09:20;;;;;;;4.45;3.38;;;;;;;20.19;53.53;101437.91;5010125;28;20053;-69
2022/07/29 04:11:47;;;;;;;3.95;3.30;;;;;;;20.21;53.79;101451.41;5008920;28;20125;-69
2022/07/29 04:14:33;;;;;;;4.40;3.30;;;;;;;20.18;53.59;101443.53;5010408;28;20385;-69
2022/07/29 04:17:04;;;;;;;4.25;3.33;;;;;;;20.17;53.40;101448.13;5009122;28;20141;-69
2022/07/29 04:19:31;;;;;;;5.25;3.63;;;;;;;20.18;53.85;101441.66;5008911;28;20056;-70
2022/07/29 04:21:59;;;;;;;4.82;3.60;;;;;;;20.22;53.77;101443.06;5009918;28;20050;-69
2022/07/29 04:24:27;;;;;;;4.78;3.38;;;;;;;20.24;53.41;101451.94;5010255;28;20046;-70
2022/07/29 04:26:54;;;;;;;5.68;3.65;;;;;;;20.28;53.90;101455.22;5009519;28;20485;-70
2022/07/29 04:29:20;;;;;;;4.53;3.40;;;;;;;20.28;53.49;101452.47;5010113;28;20475;-69
2022/07/29 04:31:47;;;;;;;4.03;3.53;;;;;;;20.29;53.93;101452.31;5009894;28;20515;-70
2022/07/29 04:34:15;;;;;;;5.30;3.65;;;;;;;20.24;53.90;101446.50;5009056;28;20072;-69
2022/07/29 04:36:42;;;;;;;6.43;3.95;;;;;;;20.19;53.87;101447.97;5009746;28;20046;-69
2022/07/29 04:39:09;;;;;;;7.88;5.10;;;;;;;20.16;53.72;101449.13;5010129;28;20413;-69
2022/07/29 04:41:36;;;;;;;4.60;4.20;;;;;;;20.15;53.98;101457.47;5013579;28;20330;-70
2022/07/29 04:44:04;;;;;;;4.63;3.90;;;;;;;20.16;54.31;101460.06;5013638;28;20050;-70
2022/07/29 04:46:33;;;;;;;4.53;4.13;;;;;;;20.16;53.88;101473.69;5013159;28;20038;-70
2022/07/29 04:49:00;;;;;;;6.25;4.28;;;;;;;20.17;54.13;101478.13;5011720;28;20109;-70
2022/07/29 04:51:27;;;;;;;5.93;3.90;;;;;;;20.20;53.95;101477.81;5013075;28;20121;-70
2022/07/29 04:53:55;;;;;;;5.88;4.63;;;;;;;20.23;54.01;101476.66;5013579;28;20396;-70
2022/07/29 04:56:23;;;;;;;7.65;5.05;;;;;;;20.24;54.25;101464.72;5013098;28;20136;-70
2022/07/29 04:58:50;;;;;;;6.45;4.35;;;;;;;20.22;54.13;101464.88;5012625;28;20048;-70
2022/07/29 05:01:16;;;;;;;7.68;4.70;;;;;;;20.21;54.37;101482.25;5013620;28;20065;-71
2022/07/29 05:03:46;;;;;;;4.90;4.40;;;;;;;20.21;54.03;101489.59;5013197;28;20048;-70
2022/07/29 05:06:13;;;;;;;6.35;4.78;;;;;;;20.20;53.96;101496.06;5012943;28;20045;-69
2022/07/29 05:08:40;;;;;;;7.85;5.18;;;;;;;20.19;54.25;101492.47;5012002;28;20046;-70
2022/07/29 05:11:07;;;;;;;6.45;5.57;;;;;;;20.18;54.26;101489.91;5013147;28;20049;-70
2022/07/29 05:13:38;;;;;;;8.73;4.90;;;;;;;20.18;54.27;101492.63;5013198;28;20112;-69
2022/07/29 05:16:12;;;;;;;6.57;5.47;;;;;;;20.15;53.94;101484.75;5012625;28;20144;-70
2022/07/29 05:18:39;;;;;;;6.10;5.20;;;;;;;20.09;53.96;101478.06;5013045;28;20086;-69
2022/07/29 05:21:06;;;;;;;7.43;5.45;;;;;;;20.03;54.32;101475.91;5013173;28;20489;-70
2022/07/29 05:23:33;;;;;;;9.05;5.57;;;;;;;19.97;54.13;101465.63;5013081;28;20034;-70
2022/07/29 05:26:00;;;;;;;7.40;5.60;;;;;;;19.94;54.54;101487.75;5012917;28;20064;-69
2022/07/29 05:28:27;;;;;;;8.10;5.00;;;;;;;19.91;54.76;101498.97;5012625;28;20041;-69
2022/07/29 05:30:53;;;;;;;6.93;5.35;;;;;;;19.93;54.42;101502.38;5013027;28;20038;-70
2022/07/29 05:33:24;;;;;;;7.55;5.82;;;;;;;19.93;54.83;101484.16;5012946;28;20460;-69
2022/07/29 05:36:06;;;;;;;8.57;5.28;;;;;;;19.89;54.65;101484.63;5012663;28;20058;-70
2022/07/29 05:38:36;;;;;;;7.28;4.82;;;;;;;19.89;55.07;101490.06;5012031;28;20038;-70
2022/07/29 05:41:04;;;;;;;7.28;4.88;;;;;;;19.93;54.76;101507.84;5012709;28;20046;-69
2022/07/29 05:43:32;;;;;;;7.13;5.72;;;;;;;20.01;54.87;101494.28;5012757;28;20590;-69
2022/07/29 05:45:59;;;;;;;7.05;5.13;;;;;;;20.04;54.64;101495.84;5012475;28;20061;-69
2022/07/29 05:48:26;;;;;;;8.30;4.85;;;;;;;20.02;54.83;101474.19;5011140;28;20511;-70
2022/07/29 05:50:54;;;;;;;8.98;5.38;;;;;;;20.01;55.03;101486.13;5012768;28;20117;-70
2022/07/29 05:53:24;;;;;;;9.15;4.95;;;;;;;20.00;55.24;101489.84;5012559;28;20161;-69
2022/07/29 05:55:51;;;;;;;6.82;5.05;;;;;;;20.02;54.98;101493.28;5012530;28;20046;-69
2022/07/29 05:58:19;;;;;;;7.53;5.10;;;;;;;20.00;55.19;101496.16;5011892;28;20042;-70
2022/07/29 06:00:45;;;;;;;7.28;4.70;;;;;;;20.02;55.33;101506.91;5012610;28;20037;-70
2022/07/29 06:03:12;;;;;;;7.50;5.03;;;;;;;20.02;54.96;101501.47;5012346;28;20404;-69
2022/07/29 06:05:39;;;;;;;6.90;5.30;;;;;;;20.02;55.37;101506.06;5012631;28;20052;-70
2022/07/29 06:08:06;;;;;;;7.00;5.25;;;;;;;20.04;55.17;101507.63;5011583;28;20125;-70
2022/07/29 06:10:37;;;;;;;6.05;5.05;;;;;;;20.00;54.88;101503.50;5012384;28;20038;-70
2022/07/29 06:13:05;;;;;;;7.43;5.35;;;;;;;19.96;55.23;101494.75;5012126;28;20492;-70
2022/07/29 06:15:32;;;;;;;7.15;5.72;;;;;;;19.94;55.09;101493.19;5011749;28;20460;-70
2022/07/29 06:17:58;;;;;;;8.05;5.88;;;;;;;19.91;55.51;101494.38;5011556;28;20053;-70
2022/07/29 06:20:30;;;;;;;7.53;5.95;;;;;;;19.90;55.60;101489.06;5012151;28;20492;-69
2022/07/29 06:23:04;;;;;;;6.80;6.10;;;;;;;19.90;55.26;101489.91;5012679;28;20046;-70
2022/07/29 06:25:34;;;;;;;6.35;5.75;;;;;;;19.92;55.57;101496.06;5011674;28;20053;-70
2022/07/29 06:28:01;;;;;;;7.88;6.18;;;;;;;19.93;55.47;101491.47;5011856;28;20485;-69
2022/07/29 06:30:28;;;;;;;13.40;6.90;;;;;;;19.95;55.77;101500.38;5009513;28;20318;-70
2022/07/29 06:33:01;;;;;;;9.63;6.38;;;;;;;19.94;55.76;101504.97;5011561;28;20046;-69
2022/07/29 06:35:28;;;;;;;10.57;6.40;;;;;;;19.98;55.71;101516.41;5010305;28;20060;-69
2022/07/29 06:38:06;;;;;;;11.15;6.07;;;;;;;20.04;55.76;101506.75;5011729;28;20069;-70
2022/07/29 06:40:59;;;;;;;7.78;6.63;;;;;;;20.09;55.45;101513.50;5011583;28;20121;-69
2022/07/29 06:43:43;;;;;;;8.93;5.45;;;;;;;20.12;55.46;101507.75;5010815;28;20046;-69
2022/07/29 06:46:19;;;;;;;9.15;5.43;;;;;;;20.13;55.54;101504.00;5011488;28;20042;-70
2022/07/29 06:48:49;;;;;;;9.50;5.50;;;;;;;20.11;55.35;101502.44;5011476;28;20037;-69
2022/07/29 06:51:17;;;;;;;7.57;5.38;;;;;;;20.11;55.35;101499.72;5012706;28;20068;-69
2022/07/29 06:53:54;;;;;;;8.05;5.75;;;;;;;20.11;55.33;101496.97;5011116;28;20042;-70
2022/07/29 06:56:26;;;;;;;7.38;5.63;;;;;;;20.10;55.55;101496.13;5010640;28;20505;-69
2022/07/29 06:58:52;;;;;;;6.95;5.20;;;;;;;20.12;55.55;101501.44;5009928;28;20046;-69
2022/07/29 07:01:19;;;;;;;8.40;5.60;;;;;;;20.14;55.69;101497.53;5009252;28;20030;-69
2022/07/29 07:03:48;;;;;;;7.32;5.10;;;;;;;20.18;55.92;101504.38;5001982;28;20038;-69
2022/07/29 07:06:15;;;;;;;6.03;5.43;;;;;;;20.23;55.57;101499.31;5001945;28;20042;-69
2022/07/29 07:08:42;;;;;;;15.05;5.63;;;;;;;20.24;55.49;101498.31;4991237;28;20050;-69
2022/07/29 07:11:08;;;;;;;7.90;5.72;;;;;;;20.23;55.94;101496.59;4991657;28;20485;-70
2022/07/29 07:13:36;;;;;;;8.23;5.75;;;;;;;20.21;55.60;101487.72;5010622;28;20052;-69
2022/07/29 07:16:04;;;;;;;6.90;5.13;;;;;;;20.21;55.68;101504.06;5010765;28;20046;-70
2022/07/29 07:18:30;;;;;;;6.63;5.30;;;;;;;20.21;55.53;101498.63;5010695;28;20133;-70
2022/07/29 07:20:57;;;;;;;9.45;5.80;;;;;;;20.21;55.97;101511.41;5011140;28;20038;-70
2022/07/29 07:23:49;;;;;;;10.35;5.50;;;;;;;20.20;55.68;101516.00;5009312;28;20034;-71
2022/07/29 07:26:16;;;;;;;8.05;5.50;;;;;;;20.24;55.76;101519.28;5010751;28;20396;-69
2022/07/29 07:28:42;;;;;;;7.53;5.88;;;;;;;20.25;55.95;101523.72;5010735;28;20083;-71
2022/07/29 07:31:09;;;;;;;8.57;5.63;;;;;;;20.27;55.94;101521.69;5011135;28;20396;-70
2022/07/29 07:33:36;;;;;;;8.32;5.68;;;;;;;20.30;56.00;101515.91;5010791;28;20042;-70
2022/07/29 07:36:03;;;;;;;5.95;5.35;;;;;;;20.33;55.64;101514.75;5010576;28;20412;-69
2022/07/29 07:38:30;;;;;;;8.88;5.18;;;;;;;20.33;55.57;101514.75;5010598;28;20056;-70
2022/07/29 07:40:56;;;;;;;7.05;4.70;;;;;;;20.34;55.43;101527.38;5010426;28;20492;-70
2022/07/29 07:43:24;;;;;;;5.90;4.60;;;;;;;20.36;55.81;101555.38;5010543;28;20528;-69
2022/07/29 07:45:50;;;;;;;6.75;5.22;;;;;;;20.37;55.35;101557.94;5010816;28;20196;-71
2022/07/29 07:48:17;;;;;;;8.98;5.47;;;;;;;20.42;55.47;101557.50;5010809;28;20111;-69
2022/07/29 07:50:44;;;;;;;7.22;5.85;;;;;;;20.47;55.61;101536.91;5009889;28;20140;-70
2022/07/29 07:53:12;;;;;;;7.60;5.60;;;;;;;20.49;55.47;101542.22;5010504;28;20049;-68
2022/07/29 07:55:42;;;;;;;6.25;5.28;;;;;;;20.51;55.26;101538.31;5010781;28;20057;-68
2022/07/29 07:58:29;;;;;;;6.00;4.88;;;;;;;20.55;55.50;101525.22;5009984;28;20489;-69
2022/07/29 08:00:56;;;;;;;5.47;4.78;;;;;;;20.57;55.18;101512.28;5010216;28;20082;-68
2022/07/29 08:03:26;;;;;;;7.78;5.78;;;;;;;20.61;55.38;101525.44;5010161;28;20038;-68
2022/07/29 08:05:54;;;;;;;6.95;5.63;;;;;;;20.66;55.61;101518.66;5010105;28;20064;-68
2022/07/29 08:08:20;;;;;;;6.47;5.28;;;;;;;20.72;55.40;101520.75;5009534;28;20508;-68
2022/07/29 08:10:53;;;;;;;9.23;4.65;;;;;;;20.79;55.47;101527.28;4990526;28;20489;-68
2022/07/29 08:13:27;;;;;;;9.82;4.97;;;;;;;20.89;55.51;101533.53;4989507;28;20368;-68
2022/07/29 08:15:57;;;;;;;7.00;5.00;;;;;;;20.99;55.70;101542.50;4993560;28;20393;-68
2022/07/29 08:18:25;;;;;;;5.85;4.45;;;;;;;21.10;55.08;101538.63;4995879;28;20074;-69
2022/07/29 08:20:52;;;;;;;6.80;4.55;;;;;;;21.19;55.30;101537.66;5014209;28;20129;-68
2022/07/29 08:23:23;;;;;;;7.05;4.93;;;;;;;21.28;55.12;101550.38;5014291;28;20038;-68
2022/07/29 08:25:50;;;;;;;6.30;5.18;;;;;;;21.30;54.84;101537.44;5013950;28;20115;-68
2022/07/29 08:28:20;;;;;;;6.97;5.25;;;;;;;21.31;54.45;101536.41;5013717;28;20093;-69
2022/07/29 08:30:51;;;;;;;8.48;5.47;;;;;;;21.39;54.87;101541.06;5013910;28;20077;-68
2022/07/29 08:33:18;;;;;;;10.23;5.13;;;;;;;21.50;54.77;101547.09;5014002;28;20056;-67
2022/07/29 08:35:45;;;;;;;5.93;5.07;;;;;;;21.70;54.57;101545.00;5014426;28;20046;-68
2022/07/29 08:38:12;;;;;;;5.97;5.00;;;;;;;21.93;54.23;101542.53;5013691;28;20500;-68
2022/07/29 08:40:39;;;;;;;7.30;4.18;;;;;;;22.12;54.11;101544.16;5013570;28;20050;-70
2022/07/29 08:43:08;;;;;;;8.40;4.03;;;;;;;22.34;54.11;101545.41;5013903;28;20052;-69
2022/07/29 08:45:44;;;;;;;5.80;4.05;;;;;;;22.56;53.60;101552.97;5013120;28;20514;-69
2022/07/29 08:48:21;;;;;;;5.72;3.35;;;;;;;22.83;53.28;101560.88;5013522;28;20369;-69
2022/07/29 08:50:52;;;;;;;6.93;4.57;;;;;;;23.02;52.93;101565.13;5013691;28;20493;-69
2022/07/29 08:53:21;;;;;;;6.43;4.40;;;;;;;23.21;52.79;101555.72;5013732;28;20061;-69
2022/07/29 08:55:49;;;;;;;6.60;3.80;;;;;;;23.43;52.64;101548.66;5013105;28;20062;-70
2022/07/29 08:58:16;;;;;;;4.30;3.80;;;;;;;23.69;52.37;101556.63;5013091;28;20452;-69
2022/07/29 09:00:52;;;;;;;5.85;4.25;;;;;;;23.89;51.70;101552.47;5013499;28;20118;-69
2022/07/29 09:03:29;;;;;;;6.63;4.43;;;;;;;24.05;51.32;101557.00;5013734;28;20060;-70
2022/07/29 09:05:58;;;;;;;9.32;4.22;;;;;;;24.16;51.09;101553.00;5012640;28;20033;-69
2022/07/29 09:08:25;;;;;;;8.10;4.57;;;;;;;24.26;50.99;101551.75;5012997;28;20396;-70
2022/07/29 09:10:51;;;;;;;4.80;3.90;;;;;;;24.40;50.43;101556.47;5013697;28;20040;-70
2022/07/29 09:13:22;;;;;;;5.20;4.43;;;;;;;24.49;50.10;101553.69;5013496;28;20411;-70
2022/07/29 09:15:49;;;;;;;6.65;4.30;;;;;;;24.55;49.69;101553.84;5012858;28;20472;-70
2022/07/29 09:18:45;;;;;;;5.78;5.10;;;;;;;24.66;49.67;101549.81;5012476;28;20125;-70
2022/07/29 09:24:11;;;;;;;8.82;4.63;;;;;;;24.99;49.01;101547.66;5013546;28;20048;-70
2022/07/29 09:26:43;;;;;;;6.60;4.82;;;;;;;25.14;48.69;101548.53;5012335;28;20050;-69
2022/07/29 09:29:16;;;;;;;9.43;4.65;;;;;;;25.29;48.49;101540.31;5012318;28;20044;-70
2022/07/29 09:32:20;;;;;;;5.85;4.63;;;;;;;25.49;48.27;101537.88;5011271;28;20523;-72
2022/07/29 09:34:46;;;;;;;5.50;4.30;;;;;;;25.66;48.40;101544.91;5013968;28;20050;-71
2022/07/29 09:37:26;;;;;;;4.20;3.63;;;;;;;25.74;47.74;101544.81;5013553;28;20480;-72
2022/07/29 09:39:53;;;;;;;7.93;4.43;;;;;;;25.85;47.57;101537.97;5013537;28;20042;-72
2022/07/29 09:42:32;;;;;;;6.25;3.92;;;;;;;25.92;47.08;101544.41;5013522;28;20042;-72
2022/07/29 09:44:59;;;;;;;6.78;3.67;;;;;;;26.04;47.22;101551.16;5012063;28;20056;-72
2022/07/29 09:47:41;;;;;;;8.10;3.90;;;;;;;26.14;46.70;101553.59;5013290;28;20042;-72
2022/07/29 09:50:08;;;;;;;5.57;3.50;;;;;;;26.28;46.65;101555.44;5012712;28;20060;-72
2022/07/29 09:52:57;;;;;;;6.47;4.18;;;;;;;26.42;46.26;101550.97;5013564;28;20487;-72
2022/07/29 09:55:23;;;;;;;6.90;3.72;;;;;;;26.55;46.02;101553.84;5013065;28;20073;-70
2022/07/29 09:57:50;;;;;;;6.45;3.70;;;;;;;26.67;45.92;101556.94;5013391;28;20066;-71
2022/07/29 10:00:19;;;;;;;8.68;4.18;;;;;;;26.80;45.62;101557.09;5013530;28;20120;-71
2022/07/29 10:02:48;;;;;;;4.78;4.13;;;;;;;26.91;45.24;101551.88;5013523;28;20046;-72
2022/07/29 10:05:20;;;;;;;5.78;4.15;;;;;;;27.00;44.89;101555.38;5012748;28;20038;-71
2022/07/29 10:07:52;;;;;;;4.50;3.97;;;;;;;27.11;44.90;101551.22;5013580;28;20064;-72
2022/07/29 10:10:34;;;;;;;7.78;4.20;;;;;;;27.20;44.67;101552.78;5013033;28;20073;-72
2022/07/29 10:13:08;;;;;;;6.10;4.20;;;;;;;27.26;44.60;101542.84;5013017;28;20052;-71
2022/07/29 10:15:44;;;;;;;7.40;4.07;;;;;;;27.33;44.26;101549.25;5012630;28;20040;-72
2022/07/29 10:18:14;;;;;;;7.60;4.15;;;;;;;27.40;44.11;101550.16;5011811;28;20045;-67
2022/07/29 10:20:41;;;;;;;9.23;5.50;;;;;;;27.53;44.19;101547.50;5012841;28;20050;-66
2022/07/29 10:23:09;;;;;;;7.07;3.88;;;;;;;27.71;44.10;101549.75;5011608;28;20081;-67
2022/07/29 10:25:36;;;;;;;6.28;4.30;;;;;;;27.90;44.17;101548.16;5011612;28;20050;-66
2022/07/29 10:28:05;;;;;;;6.53;3.65;;;;;;;28.07;43.83;101543.97;5012428;28;20056;-67
2022/07/29 10:30:32;;;;;;;5.20;3.95;;;;;;;28.28;43.33;101540.28;5012018;28;20037;-67
2022/07/29 10:33:28;;;;;;;6.63;3.42;;;;;;;28.44;42.64;101540.72;5011872;28;20046;-67
2022/07/29 10:36:20;;;;;;;6.85;3.55;;;;;;;28.65;42.79;101538.84;5011336;28;20068;-67
2022/07/29 10:39:10;;;;;;;7.15;3.97;;;;;;;28.79;42.27;101535.03;5010871;28;20115;-67
2022/07/29 10:42:01;;;;;;;7.82;3.08;;;;;;;28.89;41.88;101532.72;5012281;28;20046;-67
2022/07/29 10:44:30;;;;;;;5.65;2.72;;;;;;;28.97;41.39;101535.25;5012363;28;20440;-67
2022/07/29 10:46:57;;;;;;;3.92;2.35;;;;;;;29.04;40.91;101529.75;5012055;28;20038;-68
2022/07/29 10:49:26;;;;;;;5.03;2.72;;;;;;;29.14;40.63;101530.19;4992388;28;20473;-67
2022/07/29 10:52:16;;;;;;;6.28;2.90;;;;;;;29.21;40.34;101531.00;4992449;28;20046;-66
2022/07/29 10:54:47;;;;;;;7.82;3.20;;;;;;;29.29;40.11;101535.47;4992500;28;20141;-67
2022/07/29 10:57:22;;;;;;;6.05;2.63;;;;;;;29.38;39.95;101528.63;5009712;28;20077;-67
2022/07/29 11:00:08;;;;;;;4.85;2.80;;;;;;;29.48;39.91;101537.38;5011199;28;20038;-67
2022/07/29 11:02:51;;;;;;;5.82;2.95;;;;;;;29.53;39.25;101529.28;5012190;28;20189;-67
2022/07/29 11:05:19;;;;;;;6.68;3.03;;;;;;;29.61;39.28;101533.72;5011688;28;20483;-67
2022/07/29 11:08:12;;;;;;;6.13;3.10;;;;;;;29.68;38.96;101532.63;5011521;28;20496;-67
2022/07/29 11:10:47;;;;;;;4.30;2.72;;;;;;;29.81;38.80;101529.00;5012067;28;20507;-68
2022/07/29 11:13:43;;;;;;;4.75;2.88;;;;;;;29.90;38.48;101527.66;5011310;28;20041;-68
2022/07/29 11:16:12;;;;;;;7.38;2.75;;;;;;;30.06;38.46;101522.72;5009317;28;20381;-67
2022/07/29 11:19:13;;;;;;;4.13;3.00;;;;;;;30.10;37.73;101529.53;5011736;28;20060;-68
2022/07/29 11:21:42;;;;;;;5.15;3.03;;;;;;;30.12;37.90;101522.69;5011908;28;20053;-67
2022/07/29 11:24:27;;;;;;;3.63;2.30;;;;;;;30.22;37.63;101531.38;5011578;28;20050;-68
2022/07/29 11:27:16;;;;;;;3.92;2.40;;;;;;;30.31;37.34;101532.81;5010373;28;20369;-67
2022/07/29 11:30:04;;;;;;;3.75;2.55;;;;;;;30.39;36.92;101528.91;5011041;28;20046;-67
2022/07/29 11:33:01;;;;;;;4.60;2.38;;;;;;;30.46;36.68;101528.88;5011286;28;20409;-67
2022/07/29 11:35:28;;;;;;;3.60;2.40;;;;;;;30.52;36.72;101528.84;5011101;28;20041;-67
2022/07/29 11:38:25;;;;;;;4.63;2.75;;;;;;;30.58;36.41;101527.09;5011422;28;20451;-68
2022/07/29 11:41:29;;;;;;;3.97;2.55;;;;;;;30.65;36.52;101523.25;5011471;28;20046;-68
2022/07/29 11:44:02;;;;;;;3.25;2.60;;;;;;;30.70;36.26;101522.56;5008575;28;20048;-67
2022/07/29 11:46:49;;;;;;;4.70;3.10;;;;;;;30.71;36.31;101510.41;5011373;28;20046;-67
2022/07/29 11:49:20;;;;;;;5.53;2.97;;;;;;;30.81;36.28;101518.22;5010809;28;20062;-67